createdAt,value
2023-01-21T00:02:08.773Z,1.60
2023-01-21T00:04:39.538Z,1.50
2023-01-21T00:07:07.984Z,1.60
2023-01-21T00:09:36.964Z,1.60
2023-01-21T00:12:19.654Z,1.50
2023-01-21T00:14:50.333Z,1.50
2023-01-21T00:17:17.519Z,1.60
2023-01-21T00:19:44.825Z,1.60
2023-01-21T00:22:13.501Z,1.60
2023-01-21T00:24:40.934Z,1.60
2023-01-21T00:27:09.599Z,1.60
2023-01-21T00:29:38.493Z,1.60
2023-01-21T00:32:05.870Z,1.60
2023-01-21T00:34:34.397Z,1.50
2023-01-21T00:37:04.434Z,1.50
2023-01-21T00:39:31.532Z,1.60
2023-01-21T00:41:58.686Z,1.60
2023-01-21T00:44:26.763Z,1.60
2023-01-21T00:46:53.947Z,1.60
2023-01-21T00:49:22.519Z,1.60
2023-01-21T00:51:49.665Z,1.60
2023-01-21T00:54:17.452Z,1.60
2023-01-21T00:56:45.191Z,1.60
2023-01-21T00:59:12.713Z,1.60
2023-01-21T01:01:40.001Z,1.60
2023-01-21T01:04:07.598Z,1.50
2023-01-21T01:06:35.188Z,1.50
2023-01-21T01:09:02.298Z,1.50
2023-01-21T01:11:29.608Z,1.50
2023-01-21T01:13:57.984Z,1.50
2023-01-21T01:16:25.559Z,1.50
2023-01-21T01:18:52.850Z,1.50
2023-01-21T01:21:21.936Z,1.50
2023-01-21T01:23:52.200Z,1.50
2023-01-21T01:26:20.878Z,1.50
2023-01-21T01:28:48.909Z,1.50
2023-01-21T01:31:18.710Z,1.50
2023-01-21T01:33:46.455Z,1.50
2023-01-21T01:36:19.141Z,1.50
2023-01-21T01:38:46.696Z,1.50
2023-01-21T01:41:17.750Z,1.50
2023-01-21T01:44:05.314Z,1.60
2023-01-21T01:46:37.078Z,1.50
2023-01-21T01:49:15.464Z,1.50
2023-01-21T01:51:56.707Z,1.50
2023-01-21T01:54:28.705Z,1.50
2023-01-21T01:57:00.282Z,1.50
2023-01-21T01:59:30.039Z,1.60
2023-01-21T02:02:09.022Z,1.60
2023-01-21T02:05:08.174Z,1.60
2023-01-21T02:07:45.718Z,1.60
2023-01-21T02:10:15.345Z,1.60
2023-01-21T02:12:44.035Z,1.60
2023-01-21T02:15:11.668Z,1.60
2023-01-21T02:17:52.287Z,1.60
2023-01-21T02:20:25.894Z,1.60
2023-01-21T02:23:10.415Z,1.60
2023-01-21T02:26:15.054Z,1.60
2023-01-21T02:28:48.061Z,1.60
2023-01-21T02:31:27.764Z,1.60
2023-01-21T02:34:16.578Z,1.60
2023-01-21T02:37:06.161Z,1.60
2023-01-21T02:39:56.313Z,1.60
2023-01-21T02:43:00.959Z,1.60
2023-01-21T02:45:47.155Z,1.50
2023-01-21T02:48:20.142Z,1.60
2023-01-21T02:50:50.821Z,1.50
2023-01-21T02:53:38.282Z,1.60
2023-01-21T02:56:14.780Z,1.60
2023-01-21T02:58:45.396Z,1.50
2023-01-21T03:01:24.448Z,1.30
2023-01-21T03:04:11.530Z,1.60
2023-01-21T03:07:21.721Z,1.50
2023-01-21T03:09:49.293Z,1.60
2023-01-21T03:12:30.148Z,1.60
2023-01-21T03:15:41.451Z,1.60
2023-01-21T03:18:36.651Z,1.70
2023-01-21T03:21:13.248Z,1.70
2023-01-21T03:23:43.905Z,1.70
2023-01-21T03:26:14.631Z,1.70
2023-01-21T03:28:46.351Z,1.70
2023-01-21T03:31:19.468Z,1.70
2023-01-21T03:33:48.477Z,1.70
2023-01-21T03:36:26.863Z,1.70
2023-01-21T03:38:57.889Z,1.70
2023-01-21T03:41:33.643Z,1.70
2023-01-21T03:44:01.002Z,1.70
2023-01-21T03:46:59.559Z,1.70
2023-01-21T03:49:31.368Z,1.70
2023-01-21T03:52:00.959Z,1.70
2023-01-21T03:54:28.232Z,1.70
2023-01-21T03:56:55.274Z,1.80
2023-01-21T03:59:22.359Z,1.70
2023-01-21T04:01:49.593Z,1.70
2023-01-21T04:04:16.789Z,1.80
2023-01-21T04:06:44.105Z,1.80
2023-01-21T04:09:12.070Z,1.80
2023-01-21T04:11:39.335Z,1.80
2023-01-21T04:14:06.605Z,1.80
2023-01-21T04:16:33.814Z,1.80
2023-01-21T04:19:01.125Z,1.80
2023-01-21T04:21:28.223Z,1.80
2023-01-21T04:23:55.351Z,1.80
2023-01-21T04:26:22.509Z,1.80
2023-01-21T04:28:49.560Z,1.70
2023-01-21T04:31:16.733Z,1.70
2023-01-21T04:33:43.949Z,1.80
2023-01-21T04:36:11.149Z,1.80
2023-01-21T04:38:38.317Z,1.80
2023-01-21T04:41:05.551Z,1.80
2023-01-21T04:43:32.735Z,1.80
2023-01-21T04:45:59.882Z,1.80
2023-01-21T04:48:27.008Z,1.70
2023-01-21T04:50:54.252Z,1.80
2023-01-21T04:53:21.389Z,1.80
2023-01-21T04:55:52.243Z,1.80
2023-01-21T04:58:20.530Z,1.80
2023-01-21T05:00:47.832Z,1.80
2023-01-21T05:03:15.775Z,1.80
2023-01-21T05:05:43.116Z,1.80
2023-01-21T05:08:10.305Z,1.80
2023-01-21T05:10:37.571Z,1.80
2023-01-21T05:13:04.756Z,1.80
2023-01-21T05:15:32.278Z,1.80
2023-01-21T05:18:00.657Z,1.80
2023-01-21T05:20:27.885Z,1.80
2023-01-21T05:22:55.109Z,1.80
2023-01-21T05:25:22.186Z,1.80
2023-01-21T05:27:53.914Z,1.80
2023-01-21T05:30:22.241Z,1.80
2023-01-21T05:32:53.384Z,1.80
2023-01-21T05:35:22.283Z,1.80
2023-01-21T05:37:49.727Z,1.80
2023-01-21T05:40:18.325Z,1.80
2023-01-21T05:42:46.810Z,1.80
2023-01-21T05:45:14.463Z,1.80
2023-01-21T05:47:41.974Z,1.80
2023-01-21T05:50:10.791Z,1.80
2023-01-21T05:52:38.374Z,1.80
2023-01-21T05:55:05.992Z,1.80
2023-01-21T05:57:34.443Z,1.80
2023-01-21T06:00:01.490Z,1.80
2023-01-21T06:02:28.729Z,1.80
2023-01-21T06:04:55.754Z,1.80
2023-01-21T06:07:22.816Z,1.80
2023-01-21T06:09:49.875Z,1.80
2023-01-21T06:12:17.134Z,1.80
2023-01-21T06:14:44.331Z,1.80
2023-01-21T06:17:11.415Z,1.80
2023-01-21T06:19:38.485Z,1.80
2023-01-21T06:22:05.556Z,1.80
2023-01-21T06:24:32.751Z,1.90
2023-01-21T06:26:59.839Z,1.80
2023-01-21T06:29:26.907Z,1.90
2023-01-21T06:31:54.059Z,1.70
2023-01-21T06:34:21.258Z,1.90
2023-01-21T06:36:48.365Z,1.80
2023-01-21T06:39:15.489Z,1.80
2023-01-21T06:41:42.655Z,1.80
2023-01-21T06:44:09.900Z,1.80
2023-01-21T06:46:41.072Z,1.80
2023-01-21T06:49:08.636Z,1.80
2023-01-21T06:51:35.842Z,1.80
2023-01-21T06:54:03.010Z,1.90
2023-01-21T06:56:30.204Z,1.80
2023-01-21T06:58:57.314Z,1.80
2023-01-21T07:01:24.376Z,1.80
2023-01-21T07:03:51.521Z,1.90
2023-01-21T07:06:18.538Z,1.90
2023-01-21T07:08:45.617Z,1.90
2023-01-21T07:11:12.621Z,1.90
2023-01-21T07:13:39.778Z,1.90
2023-01-21T07:16:07.746Z,1.90
2023-01-21T07:18:34.858Z,1.90
2023-01-21T07:21:01.937Z,1.90
2023-01-21T07:23:30.374Z,1.90
2023-01-21T07:25:58.083Z,1.90
2023-01-21T07:28:25.179Z,1.90
2023-01-21T07:30:52.295Z,1.90
2023-01-21T07:33:19.362Z,1.90
2023-01-21T07:35:46.359Z,2.00
2023-01-21T07:38:13.462Z,1.90
2023-01-21T07:40:40.556Z,1.90
2023-01-21T07:43:09.680Z,2.00
2023-01-21T07:45:36.974Z,2.00
2023-01-21T07:48:04.526Z,2.00
2023-01-21T07:50:31.583Z,2.00
2023-01-21T07:52:59.746Z,2.00
2023-01-21T07:55:28.026Z,2.00
2023-01-21T07:57:58.961Z,2.00
2023-01-21T08:00:29.447Z,2.00
2023-01-21T08:02:57.707Z,2.00
2023-01-21T08:05:26.071Z,2.00
2023-01-21T08:07:53.246Z,2.00
2023-01-21T08:10:22.494Z,2.00
2023-01-21T08:12:49.651Z,2.00
2023-01-21T08:15:17.393Z,2.00
2023-01-21T08:17:46.546Z,2.00
2023-01-21T08:20:13.730Z,2.00
2023-01-21T08:22:41.020Z,2.10
2023-01-21T08:25:08.598Z,2.10
2023-01-21T08:27:35.592Z,2.20
2023-01-21T08:30:02.991Z,2.20
2023-01-21T08:32:31.752Z,2.20
2023-01-21T08:34:58.979Z,2.20
2023-01-21T08:37:26.127Z,2.20
2023-01-21T08:39:53.171Z,2.20
2023-01-21T08:42:20.258Z,2.20
2023-01-21T08:44:51.073Z,2.20
2023-01-21T08:47:18.629Z,2.20
2023-01-21T08:49:45.725Z,2.30
2023-01-21T08:52:13.237Z,2.30
2023-01-21T08:54:41.538Z,2.40
2023-01-21T08:57:09.033Z,2.40
2023-01-21T08:59:36.090Z,2.50
2023-01-21T09:02:03.116Z,2.60
2023-01-21T09:04:30.181Z,2.50
2023-01-21T09:06:57.345Z,2.60
2023-01-21T09:09:24.849Z,2.50
2023-01-21T09:11:52.802Z,1.50
2023-01-21T09:14:20.539Z,2.50
2023-01-21T09:16:51.121Z,2.50
2023-01-21T09:19:18.560Z,2.50
2023-01-21T09:21:45.629Z,2.50
2023-01-21T09:24:12.757Z,2.50
2023-01-21T09:26:44.207Z,2.50
2023-01-21T09:29:11.583Z,2.60
2023-01-21T09:31:39.036Z,2.60
2023-01-21T09:34:06.552Z,2.70
2023-01-21T09:36:35.563Z,2.80
2023-01-21T09:39:03.079Z,2.80
2023-01-21T09:41:36.569Z,2.90
2023-01-21T09:44:37.870Z,2.80
2023-01-21T09:47:05.064Z,2.80
2023-01-21T09:49:43.227Z,2.90
2023-01-21T09:52:25.856Z,2.90
2023-01-21T09:54:53.613Z,2.90
2023-01-21T09:57:20.577Z,2.90
2023-01-21T10:00:16.659Z,2.90
2023-01-21T10:02:49.246Z,3.00
2023-01-21T10:05:25.458Z,3.00
2023-01-21T10:07:58.084Z,3.10
2023-01-21T10:11:09.693Z,3.10
2023-01-21T10:14:04.319Z,3.20
2023-01-21T10:17:09.513Z,3.10
2023-01-21T10:20:17.291Z,3.10
2023-01-21T10:22:54.938Z,3.10
2023-01-21T10:25:31.277Z,3.10
2023-01-21T10:28:27.163Z,3.10
2023-01-21T10:31:08.511Z,3.10
2023-01-21T10:33:35.979Z,3.10
2023-01-21T10:36:12.078Z,3.20
2023-01-21T10:39:17.867Z,3.10
2023-01-21T10:42:13.797Z,3.20
2023-01-21T10:44:55.856Z,3.10
2023-01-21T10:47:42.295Z,3.20
2023-01-21T10:50:37.012Z,3.20
2023-01-21T10:53:45.973Z,3.20
2023-01-21T10:56:51.151Z,3.20
2023-01-21T10:59:23.798Z,3.10
2023-01-21T11:01:57.957Z,3.20
2023-01-21T11:04:28.462Z,3.20
2023-01-21T11:07:05.314Z,3.20
2023-01-21T11:09:37.508Z,3.20
2023-01-21T11:12:05.154Z,3.20
2023-01-21T11:14:32.195Z,3.20
2023-01-21T11:17:00.606Z,3.30
2023-01-21T11:19:31.577Z,3.30
2023-01-21T11:22:17.239Z,3.30
2023-01-21T11:24:46.756Z,3.30
2023-01-21T11:27:22.396Z,3.40
2023-01-21T11:29:50.576Z,3.40
2023-01-21T11:32:23.607Z,3.40
2023-01-21T11:34:57.247Z,3.40
2023-01-21T11:37:29.942Z,3.50
2023-01-21T11:40:21.758Z,3.50
2023-01-21T11:42:55.041Z,3.50
2023-01-21T11:45:36.188Z,3.70
2023-01-21T11:48:19.557Z,3.60
2023-01-21T11:50:47.517Z,3.60
2023-01-21T11:53:17.577Z,3.50
2023-01-21T11:55:52.011Z,3.50
2023-01-21T11:58:26.789Z,3.50
2023-01-21T12:01:01.393Z,3.50
2023-01-21T12:03:35.226Z,3.20
2023-01-21T12:06:03.215Z,3.40
2023-01-21T12:08:33.549Z,3.40
2023-01-21T12:11:02.921Z,3.40
2023-01-21T12:13:56.078Z,3.30
2023-01-21T12:16:50.379Z,3.50
2023-01-21T12:19:47.951Z,3.40
2023-01-21T12:22:44.369Z,3.50
2023-01-21T12:25:38.478Z,3.20
2023-01-21T12:28:34.222Z,3.50
2023-01-21T12:31:11.779Z,3.50
2023-01-21T12:33:50.908Z,3.50
2023-01-21T12:36:26.763Z,3.40
2023-01-21T12:39:21.891Z,3.50
2023-01-21T12:42:45.451Z,3.40
2023-01-21T12:48:50.107Z,3.50
2023-01-21T12:51:32.596Z,2.70
2023-01-21T13:06:56.639Z,3.20
2023-01-21T13:13:00.380Z,3.30
2023-01-21T13:16:02.321Z,2.80
2023-01-21T13:21:54.733Z,3.20
2023-01-21T13:31:58.247Z,3.20
2023-01-21T13:41:45.746Z,3.20
2023-01-21T13:44:20.668Z,3.10
2023-01-21T13:47:30.195Z,3.10
2023-01-21T13:50:34.768Z,3.10
2023-01-21T14:03:26.827Z,3.30
2023-01-21T14:16:15.028Z,3.20
2023-01-21T14:19:41.239Z,3.10
2023-01-21T14:29:10.348Z,3.10
2023-01-21T14:43:57.713Z,3.10
2023-01-21T14:50:24.315Z,3.00
2023-01-21T14:56:26.064Z,3.00
2023-01-21T14:59:10.251Z,3.00
2023-01-21T15:01:49.007Z,2.90
2023-01-21T15:04:34.828Z,2.80
2023-01-21T15:07:15.478Z,2.80
2023-01-21T15:10:00.862Z,2.80
2023-01-21T15:12:33.261Z,2.80
2023-01-21T15:15:03.345Z,2.80
2023-01-21T15:17:55.760Z,2.80
2023-01-21T15:21:02.458Z,2.80
2023-01-21T15:23:29.988Z,2.90
2023-01-21T15:26:11.397Z,3.00
2023-01-21T15:28:47.394Z,2.80
2023-01-21T15:31:23.323Z,2.30
2023-01-21T15:33:58.993Z,2.80
2023-01-21T15:36:30.494Z,2.90
2023-01-21T15:39:02.564Z,2.80
2023-01-21T15:41:57.397Z,2.90
2023-01-21T15:44:46.347Z,2.90
2023-01-21T15:47:35.793Z,2.40
2023-01-21T15:50:20.212Z,2.70
2023-01-21T15:53:26.789Z,2.70
2023-01-21T15:56:06.175Z,2.50
2023-01-21T15:58:52.654Z,2.70
2023-01-21T16:01:39.112Z,2.60
2023-01-21T16:04:23.803Z,2.70
2023-01-21T16:07:25.390Z,2.70
2023-01-21T16:09:56.351Z,2.70
2023-01-21T16:13:04.634Z,2.60
2023-01-21T16:15:45.753Z,2.70
2023-01-21T16:18:27.693Z,1.60
2023-01-21T16:20:58.397Z,2.70
2023-01-21T16:23:29.663Z,2.20
2023-01-21T16:25:57.113Z,1.50
2023-01-21T16:28:39.895Z,2.70
2023-01-21T16:31:09.837Z,2.70
2023-01-21T16:33:38.175Z,2.70
2023-01-21T16:36:08.577Z,2.70
2023-01-21T16:38:38.382Z,2.70
2023-01-21T16:41:08.826Z,2.70
2023-01-21T16:43:46.081Z,2.60
2023-01-21T16:46:19.511Z,3.30
2023-01-21T16:48:52.953Z,2.50
2023-01-21T16:51:29.223Z,2.70
2023-01-21T16:54:16.641Z,2.70
2023-01-21T16:56:54.794Z,2.70
2023-01-21T16:59:41.201Z,2.50
2023-01-21T17:02:31.874Z,2.60
2023-01-21T17:05:05.205Z,2.60
2023-01-21T17:07:44.903Z,2.60
2023-01-21T17:10:25.011Z,2.60
2023-01-21T17:13:16.638Z,2.60
2023-01-21T17:15:57.791Z,2.90
2023-01-21T17:18:31.441Z,2.50
2023-01-21T17:21:10.607Z,2.60
2023-01-21T17:23:51.297Z,2.50
2023-01-21T17:26:34.672Z,2.60
2023-01-21T17:29:12.308Z,2.60
2023-01-21T17:31:45.243Z,2.60
2023-01-21T17:34:15.903Z,2.60
2023-01-21T17:36:52.468Z,2.50
2023-01-21T17:39:50.466Z,2.60
2023-01-21T17:42:28.002Z,2.60
2023-01-21T17:45:05.359Z,2.10
2023-01-21T17:48:04.022Z,2.60
2023-01-21T17:50:31.069Z,2.60
2023-01-21T17:53:03.451Z,2.60
2023-01-21T17:56:01.881Z,2.60
2023-01-21T17:58:33.851Z,2.60
2023-01-21T18:01:04.512Z,2.60
2023-01-21T18:03:34.724Z,2.30
2023-01-21T18:06:04.018Z,2.60
2023-01-21T18:08:32.034Z,2.60
2023-01-21T18:11:00.367Z,2.50
2023-01-21T18:13:28.877Z,2.50
2023-01-21T18:15:57.357Z,1.40
2023-01-21T18:18:28.148Z,2.50
2023-01-21T18:20:59.698Z,2.50
2023-01-21T18:23:29.961Z,2.50
2023-01-21T18:26:02.346Z,2.40
2023-01-21T18:28:32.595Z,2.50
2023-01-21T18:31:02.158Z,2.50
2023-01-21T18:33:31.171Z,2.60
2023-01-21T18:36:00.443Z,2.70
2023-01-21T18:38:31.202Z,2.50
2023-01-21T18:41:02.285Z,2.50
2023-01-21T18:43:32.200Z,2.50
2023-01-21T18:46:02.574Z,2.60
2023-01-21T18:48:32.724Z,2.30
2023-01-21T18:51:02.133Z,2.00
2023-01-21T18:53:34.448Z,2.50
2023-01-21T18:56:23.254Z,2.50
2023-01-21T19:01:58.444Z,2.50
2023-01-21T19:04:29.613Z,2.40
2023-01-21T19:06:58.124Z,2.50
2023-01-21T19:09:28.247Z,2.50
2023-01-21T19:11:56.755Z,1.30
2023-01-21T19:14:24.782Z,2.50
2023-01-21T19:16:52.706Z,2.50
2023-01-21T19:23:12.098Z,2.50
2023-01-21T19:32:24.234Z,2.40
2023-01-21T19:34:53.517Z,2.50
2023-01-21T19:37:24.702Z,2.40
2023-01-21T19:39:52.748Z,2.40
2023-01-21T19:42:20.276Z,2.40
2023-01-21T19:44:48.833Z,2.40
2023-01-21T19:47:28.464Z,2.50
2023-01-21T19:49:56.683Z,2.40
2023-01-21T19:52:25.489Z,2.40
2023-01-21T19:54:55.183Z,2.40
2023-01-21T19:57:23.290Z,2.40
2023-01-21T19:59:54.253Z,2.30
2023-01-21T20:02:22.809Z,2.40
2023-01-21T20:04:51.141Z,2.40
2023-01-21T20:07:19.026Z,2.40
2023-01-21T20:09:47.425Z,2.40
2023-01-21T20:12:18.592Z,2.40
2023-01-21T20:14:50.301Z,2.40
2023-01-21T20:17:20.185Z,2.40
2023-01-21T20:19:49.343Z,2.40
2023-01-21T20:22:17.194Z,2.40
2023-01-21T20:24:48.909Z,2.30
2023-01-21T20:27:18.502Z,2.30
2023-01-21T20:29:55.762Z,2.40
2023-01-21T20:32:30.738Z,2.40
2023-01-21T20:34:58.508Z,2.40
2023-01-21T20:37:26.664Z,2.40
2023-01-21T20:39:54.619Z,2.40
2023-01-21T20:42:23.241Z,2.40
2023-01-21T20:44:53.181Z,2.40
2023-01-21T20:47:32.611Z,2.30
2023-01-21T20:50:23.809Z,2.40
2023-01-21T20:52:53.212Z,2.40
2023-01-21T20:55:28.987Z,2.40
2023-01-21T20:57:57.497Z,2.40
2023-01-21T21:00:32.302Z,2.40
2023-01-21T21:03:01.658Z,2.40
2023-01-21T21:05:30.032Z,2.40
2023-01-21T21:07:57.793Z,2.40
2023-01-21T21:10:31.976Z,2.40
2023-01-21T21:13:01.896Z,2.40
2023-01-21T21:15:32.166Z,2.40
2023-01-21T21:18:01.039Z,2.40
2023-01-21T21:20:38.825Z,2.40
2023-01-21T21:23:10.361Z,2.40
2023-01-21T21:25:49.603Z,2.40
2023-01-21T21:28:19.136Z,2.40
2023-01-21T21:30:46.834Z,2.40
2023-01-21T21:33:19.939Z,2.40
2023-01-21T21:35:47.621Z,2.40
2023-01-21T21:38:17.817Z,2.40
2023-01-21T21:40:47.452Z,2.40
2023-01-21T21:43:38.610Z,2.40
2023-01-21T21:46:30.202Z,2.50
2023-01-21T21:48:57.508Z,2.40
2023-01-21T21:51:25.585Z,2.40
2023-01-21T21:53:53.081Z,2.40
2023-01-21T21:56:24.331Z,2.50
2023-01-21T21:58:52.344Z,2.50
2023-01-21T22:01:23.204Z,2.50
2023-01-21T22:03:51.221Z,2.50
2023-01-21T22:06:20.133Z,2.50
2023-01-21T22:08:48.126Z,2.50
2023-01-21T22:11:17.332Z,2.50
2023-01-21T22:13:46.094Z,2.50
2023-01-21T22:16:16.413Z,2.50
2023-01-21T22:18:44.274Z,2.50
2023-01-21T22:21:13.275Z,2.50
2023-01-21T22:23:40.395Z,2.50
2023-01-21T22:26:12.477Z,2.50
2023-01-21T22:28:40.202Z,2.50
2023-01-21T22:31:10.124Z,2.50
2023-01-21T22:33:38.321Z,2.50
2023-01-21T22:36:07.458Z,2.40
2023-01-21T22:38:35.841Z,2.50
2023-01-21T22:41:03.951Z,2.50
2023-01-21T22:43:32.184Z,2.40
2023-01-21T22:46:00.255Z,2.50
2023-01-21T22:48:27.953Z,2.50
2023-01-21T22:50:59.709Z,2.50
2023-01-21T22:53:27.855Z,2.40
2023-01-21T22:56:00.632Z,2.50
2023-01-21T22:58:28.386Z,2.50
2023-01-21T23:00:56.621Z,2.50
2023-01-21T23:03:26.479Z,2.50
2023-01-21T23:05:53.817Z,2.50
2023-01-21T23:08:21.036Z,2.50
2023-01-21T23:10:48.273Z,2.50
2023-01-21T23:13:16.638Z,2.50
2023-01-21T23:15:45.785Z,2.50
2023-01-21T23:18:14.619Z,2.50
2023-01-21T23:20:43.515Z,2.50
2023-01-21T23:23:12.387Z,2.50
2023-01-21T23:25:44.219Z,2.50
2023-01-21T23:28:13.305Z,2.50
2023-01-21T23:30:41.229Z,2.50
2023-01-21T23:33:08.823Z,2.50
2023-01-21T23:35:36.072Z,2.50
2023-01-21T23:38:03.839Z,2.40
2023-01-21T23:40:31.352Z,2.50
2023-01-21T23:42:58.606Z,2.50
2023-01-21T23:45:32.950Z,2.50
2023-01-21T23:48:00.066Z,2.50
2023-01-21T23:50:27.394Z,2.50
2023-01-21T23:52:55.500Z,2.50
2023-01-21T23:55:22.838Z,2.50
2023-01-21T23:57:49.914Z,2.50
